Bradenton Beach, FL

10:09 AM EDT on August 04, 2015 (GMT -0400)
Anna Maria Island | | Change Station
CLOSE
Current Station
Personal Weather Station
Location: Anna Maria, FL
Elevation: 2 ft
Nearby Weather Stations

Elev 2 ft 27.53 °N, 82.73 °W | Updated 13 seconds ago

Clear
Clear
85.6 °F
Feels Like 101 °F
N
8.1
Wind Variable Wind from South
Gusts 9.8 mph

Today
High -- | Low -- °F
--% Chance of Precip.
Yesterday
High -- | Low -- °F
Precip. -- in
6:55 AM 8:17 PM
Waning Gibbous, 77% visible
Pressure 30.05 in
Visibility 10.0 miles
Clouds Clear
Heat Index 101 °F
Dew Point 81 °F
Humidity 85%
Rainfall 0.00 in
Snow Depth Not available.
UV 4.0 out of 12
Pollen 2.60 out of 12
Air Quality Not available.
Flu Activity Not available.
METAR KSRQ 041353Z AUTO 23006KT 10SM CLR 29/23 A3005 RMK AO2 SLP176 T02890233

More Conditions Fewer Conditions

Pressure 30.05 in
Visibility 10.0 miles
Clouds Clear
Heat Index 101 °F
Dew Point 81 °F
Humidity 85%
Rainfall 0.00 in
Snow Depth Not available.
UV 4.0 out of 12
Pollen 2.60 out of 12
Air Quality Not available.
Flu Activity Not available.
METAR KSRQ 041353Z AUTO 23006KT 10SM CLR 29/23 A3005 RMK AO2 SLP176 T02890233

More Conditions Fewer Conditions

10-Day Weather Forecast

×

Almanac

Astronomy

Aug. 04, 2015 Rise Set
Actual Time
Civil Twilight
Nautical Twilight
Astronomical Twilight
Moon
Length of Visible Light
Length of Day
Tomorrow will be .
, % of the Moon is Illuminated

Today's Extremes

State Highs State Lows

Community

WunderPhotos

Upload Photos

1,843,912 photos uploaded!

WunderBlogs® & News

Nearby

Air Quality

  Air Quality AQ Index Pollutant
Not available.

Snow Depth

Station Depth Elevation

Earthquake Activity

City Distance Mag. Time & Date
Minimum magnitude displayed is 2.5.

Coastal Water Temperatures

Place Temperature

Stations

Nearby Weather Stations

Station Location Temp. Windchill Dew Point Humidity Wind Precip. Elev Updated Type